Latest Weather Observations for Holsworthy

IDN60901

Issued at 9:21 pm EDT Tuesday 23 October 2018 (issued every 10 minutes, with the page automatically refreshed every 10 minutes)

About weather observations | Map of Sydney area stations | Latest observations for Sydney area | Other Formats
Station Details ID: 066161 Name: HOLSWORTHY AERODROME AWS Lat: -33.99 Lon: 150.95 Height: 68.16 m
Data from the previous 72 hours. | See also: Recent months at Holsworthy
Date/Time
EDT
Temp
°C
App
Temp
°C
Dew
Point
°C
Rel
Hum
%
Delta-T
°C
Wind Press
QNH
hPa
Press
MSL
hPa
Rain since
9am
mm
Dir  Spd
km/h
Gust
km/h
Spd
kts
Gust
kts
23/09:00pm 21.8 21.7 15.9 69 3.6 ESE 11 15 6 8 1012.3 1012.2 0.0
23/08:30pm 21.9 21.8 16.0 69 3.6 ESE 11 15 6 8 1012.1 1012.0 0.0
23/08:00pm 22.5 22.1 16.3 68 3.8 SE 13 17 7 9 1011.9 1011.8 0.0
23/07:30pm 23.0 23.0 16.3 66 4.1 E 11 15 6 8 1011.3 1011.2 0.0
23/07:00pm 24.0 23.6 16.3 62 4.7 E 13 15 7 8 1011.1 1011.0 0.0
23/06:30pm 24.6 23.9 16.3 60 5.1 ENE 15 20 8 11 1010.6 1010.5 0.0
23/06:00pm 25.2 24.1 16.4 58 5.4 ENE 17 22 9 12 1010.2 1010.1 0.0
23/05:30pm 26.5 25.8 17.3 57 5.8 ENE 17 24 9 13 1009.9 1009.8 0.0
23/05:00pm 26.8 25.0 17.0 55 6.1 E 22 30 12 16 1009.8 1009.7 0.0
23/04:30pm 27.0 25.4 16.6 53 6.5 ENE 20 30 11 16 1009.7 1009.6 0.0
23/04:00pm 27.7 26.2 16.3 49 7.1 ENE 19 26 10 14 1009.9 1009.8 0.0
23/03:30pm 27.5 26.3 16.1 49 7.0 ENE 17 28 9 15 1010.1 1010.0 0.0
23/03:00pm 27.9 26.2 16.2 49 7.3 E 20 28 11 15 1010.5 1010.4 0.0
23/02:30pm 28.1 26.4 15.7 46 7.6 E 19 26 10 14 1010.9 1010.8 0.0
23/02:00pm 28.9 28.5 16.1 46 8.0 NE 13 22 7 12 1011.3 1011.2 0.0
23/01:30pm 29.1 29.0 17.0 48 7.6 NNE 13 26 7 14 1011.9 1011.8 0.0
23/01:00pm 28.1 27.0 16.4 49 7.3 N 17 24 9 13 1012.3 1012.2 0.0
23/12:30pm 26.4 26.1 15.4 50 6.7 NNE 11 17 6 9 1013.0 1012.9 0.0
23/12:00pm 25.8 25.3 15.8 54 6.1 NNE 13 20 7 11 1013.6 1013.5 0.0
23/11:30am 25.2 25.8 16.9 60 5.1 NNE 9 17 5 9 1014.4 1014.2 0.0
23/11:00am 23.6 23.5 15.9 62 4.7 N 11 15 6 8 1015.0 1014.8 0.0
23/10:30am 22.3 22.6 15.9 67 3.9 NNE 9 15 5 8 1015.1 1014.9 0.0
23/10:00am 21.5 22.1 15.8 70 3.4 N 7 15 4 8 1015.5 1015.3 0.0
23/09:30am 20.5 20.9 15.3 72 3.1 N 7 11 4 6 1015.8 1015.6 0.0
23/09:00am 19.4 19.9 15.1 76 2.5 NNW 6 9 3 5 1015.8 1015.6 0.0
23/08:30am 18.5 18.9 14.8 79 2.2 N 6 7 3 4 1015.9 1015.7 0.0
23/08:00am 17.3 18.0 14.6 84 1.6 NNW 4 7 2 4 1016.0 1015.8 0.0
23/07:30am 15.5 16.7 13.9 90 0.9 CALM 0 0 0 0 1015.8 1015.6 0.0
23/07:00am 14.5 15.5 13.2 92 0.7 CALM 0 0 0 0 1015.6 1015.4 0.0
23/06:30am 13.5 14.3 12.6 94 0.5 CALM 0 0 0 0 1015.3 1015.1 0.0
23/06:00am 12.9 13.4 11.6 92 0.7 CALM 0 0 0 0 1015.1 1014.9 0.0
23/05:30am 13.6 14.4 12.7 94 0.5 CALM 0 0 0 0 1014.8 1014.6 0.0
23/05:00am 13.0 13.5 11.7 92 0.7 CALM 0 0 0 0 1014.7 1014.5 0.0
23/04:30am 13.8 14.6 12.7 93 0.6 CALM 0 0 0 0 1014.8 1014.6 0.0
23/04:00am 14.1 15.0 13.0 93 0.6 CALM 0 0 0 0 1014.8 1014.6 0.0
23/03:30am 14.4 14.2 13.1 92 0.7 ESE 6 7 3 4 1014.9 1014.7 0.0
23/03:00am 14.1 13.8 12.7 91 0.8 ESE 6 7 3 4 1015.2 1015.0 0.0
23/02:30am 14.8 14.7 13.3 91 0.8 ESE 6 7 3 4 1015.4 1015.2 0.0
23/02:00am 15.4 15.3 13.4 88 1.1 E 6 7 3 4 1015.8 1015.6 0.0
23/01:30am 16.0 15.9 13.8 87 1.2 E 7 9 4 5 1015.9 1015.7 0.0
23/01:00am 15.9 15.7 13.6 86 1.3 ESE 7 9 4 5 1016.2 1016.0 0.0
23/12:30am 16.0 15.8 13.7 86 1.3 ESE 7 9 4 5 1016.5 1016.3 0.0
23/12:00am 16.4 16.2 13.7 84 1.5 ESE 7 7 4 4 1016.8 1016.6 0.0
 
Date/Time
EDT
Temp
°C
App
Temp
°C
Dew
Point
°C
Rel
Hum
%
Delta-T
°C
Wind Press
QNH
hPa
Press
MSL
hPa
Rain since
9am
mm
Dir  Spd
km/h
Gust
km/h
Spd
kts
Gust
kts
22/11:30pm 17.1 17.2 13.8 81 1.9 ENE 6 7 3 4 1017.0 1016.8 0.0
22/11:00pm 17.4 17.3 13.9 80 2.0 ENE 7 9 4 5 1017.0 1016.8 0.0
22/10:30pm 17.6 17.6 14.1 80 2.0 ENE 7 13 4 7 1017.0 1016.8 0.0
22/10:00pm 17.7 17.7 14.2 80 2.0 NE 7 9 4 5 1016.9 1016.7 0.0
22/09:30pm 17.9 17.9 14.2 79 2.1 NE 7 13 4 7 1016.7 1016.5 0.0
22/09:00pm 18.2 18.2 14.3 78 2.2 NE 7 9 4 5 1016.7 1016.5 0.0
22/08:30pm 18.4 17.7 14.3 77 2.4 NE 11 15 6 8 1016.2 1016.0 0.0
22/08:00pm 18.8 17.8 14.5 76 2.5 ENE 13 20 7 11 1016.0 1015.8 0.0
22/07:30pm 19.1 18.1 14.6 75 2.6 ENE 13 20 7 11 1015.8 1015.6 0.0
22/07:00pm 19.6 18.7 14.8 74 2.8 E 13 20 7 11 1015.6 1015.4 0.0
22/06:30pm 20.1 17.7 14.5 70 3.3 ENE 20 28 11 15 1015.3 1015.1 0.0
22/06:00pm 20.9 18.7 14.8 68 3.6 E 20 32 11 17 1014.9 1014.7 0.0
22/05:30pm 21.3 18.6 14.7 66 3.9 E 22 30 12 16 1014.8 1014.6 0.0
22/05:00pm 22.0 20.1 15.1 65 4.1 ENE 19 33 10 18 1014.8 1014.6 0.0
22/04:30pm 22.3 20.0 14.7 62 4.5 ENE 20 30 11 16 1014.8 1014.6 0.0
22/04:00pm 22.4 20.2 15.0 63 4.4 ENE 20 32 11 17 1014.7 1014.5 0.0
22/03:30pm 22.8 20.6 14.9 61 4.7 ENE 20 33 11 18 1014.8 1014.6 0.0
22/03:00pm 22.7 20.5 14.8 61 4.7 E 20 32 11 17 1015.0 1014.8 0.0
22/02:30pm 22.9 21.3 15.0 61 4.7 NE 17 26 9 14 1015.4 1015.2 0.0
22/02:00pm 22.4 20.7 14.8 62 4.5 ENE 17 24 9 13 1015.8 1015.6 0.0
22/01:30pm 22.8 22.1 14.4 59 5.0 ENE 11 22 6 12 1016.1 1015.9 0.0
22/01:00pm 23.6 23.3 15.4 60 4.9 ENE 11 19 6 10 1016.4 1016.2 0.0
22/12:30pm 22.7 22.5 14.8 61 4.7 NNW 9 19 5 10 1017.0 1016.8 0.0
22/12:00pm 21.8 21.2 14.7 64 4.2 N 11 20 6 11 1017.3 1017.1 0.0
22/11:30am 20.8 19.4 13.5 63 4.2 N 13 20 7 11 1017.7 1017.5 0.0
22/11:00am 21.3 20.2 15.2 68 3.6 NE 15 28 8 15 1018.1 1017.9 0.0
22/10:30am 20.1 18.9 14.0 68 3.5 NE 13 20 7 11 1018.4 1018.2 0.0
22/10:00am 20.1 20.0 14.9 72 3.1 NNE 9 17 5 9 1018.7 1018.5 0.0
22/09:30am 19.1 18.6 13.9 72 3.0 NNE 9 13 5 7 1018.8 1018.6 0.0
22/09:00am 18.3 18.2 13.8 75 2.6 NNE 7 9 4 5 1018.9 1018.7 0.0
22/08:30am 17.4 17.6 13.1 76 2.4 NW 4 9 2 5 1019.0 1018.8 0.0
22/08:00am 16.3 15.8 12.8 80 1.9 WSW 7 7 4 4 1018.7 1018.5 0.0
22/07:30am 16.1 17.0 13.0 82 1.7 CALM 0 0 0 0 1018.5 1018.3 0.0
22/07:00am 15.7 16.6 12.8 83 1.6 CALM 0 0 0 0 1018.2 1018.0 0.0
22/06:30am 15.2 16.0 12.7 85 1.4 CALM 0 0 0 0 1017.9 1017.7 0.0
22/06:00am 15.3 14.9 12.4 83 1.6 WSW 6 7 3 4 1017.8 1017.6 0.0
22/05:30am 15.3 15.0 12.6 84 1.5 SSW 6 9 3 5 1017.6 1017.4 0.0
22/05:00am 15.2 15.2 12.5 84 1.5 W 4 7 2 4 1017.5 1017.3 0.0
22/04:30am 15.0 14.4 12.3 84 1.5 SW 7 9 4 5 1017.5 1017.3 0.0
22/04:00am 14.8 14.2 12.3 85 1.4 WSW 7 11 4 6 1017.3 1017.1 0.0
22/03:30am 14.7 14.0 12.0 84 1.5 SW 7 11 4 6 1017.2 1017.0 0.0
22/03:00am 14.7 13.7 12.2 85 1.4 SW 9 13 5 7 1017.1 1016.9 0.0
22/02:30am 14.9 14.4 12.2 84 1.5 SW 6 7 3 4 1017.2 1017.0 0.0
22/02:00am 15.0 14.3 12.1 83 1.6 SW 7 9 4 5 1017.5 1017.3 0.0
22/01:30am 14.8 14.1 11.9 83 1.6 SW 7 9 4 5 1017.8 1017.6 0.0
22/01:00am 15.2 15.4 12.0 81 1.7 SW 2 7 1 4 1018.1 1017.9 0.0
22/12:30am 15.7 15.2 12.1 79 2.0 SW 6 9 3 5 1018.5 1018.3 0.0
22/12:00am 15.7 15.2 11.9 78 2.1 SSW 6 7 3 4 1018.6 1018.4 0.0
 
Date/Time
EDT
Temp
°C
App
Temp
°C
Dew
Point
°C
Rel
Hum
%
Delta-T
°C
Wind Press
QNH
hPa
Press
MSL
hPa
Rain since
9am
mm
Dir  Spd
km/h
Gust
km/h
Spd
kts
Gust
kts
21/11:30pm 15.9 15.4 12.1 78 2.1 SW 6 7 3 4 1018.7 1018.5 0.0
21/11:00pm 15.8 15.4 12.4 80 1.9 SW 6 7 3 4 1018.9 1018.7 0.0
21/10:30pm 15.9 16.6 12.3 79 2.0 CALM 0 2 0 1 1019.1 1018.9 0.0
21/10:00pm 16.1 15.6 12.1 77 2.2 SW 6 7 3 4 1018.9 1018.7 0.0
21/09:30pm 16.2 15.7 12.2 77 2.2 SW 6 7 3 4 1018.7 1018.5 0.0
21/09:00pm 16.2 15.7 12.0 76 2.3 SSW 6 9 3 5 1018.5 1018.3 0.0
21/08:30pm 16.2 14.7 12.0 76 2.3 S 11 15 6 8 1018.3 1018.1 0.0
21/08:00pm 16.3 14.9 12.1 76 2.3 SSE 11 17 6 9 1017.9 1017.7 0.0
21/07:30pm 16.3 14.7 11.7 74 2.5 SSE 11 15 6 8 1017.8 1017.6 0.0
21/07:00pm 16.7 14.7 11.6 72 2.8 SE 13 17 7 9 1017.4 1017.2 0.0
21/06:30pm 17.0 14.9 11.1 68 3.2 SSE 13 17 7 9 1017.0 1016.8 0.0
21/06:00pm 17.1 14.6 10.9 67 3.3 SSE 15 20 8 11 1016.5 1016.3 0.0
21/05:30pm 17.6 14.7 10.9 65 3.6 SE 17 26 9 14 1016.3 1016.1 0.0
21/05:00pm 17.5 14.2 10.9 65 3.6 SSE 19 24 10 13 1016.1 1015.9 0.0
21/04:30pm 17.5 14.3 11.1 66 3.5 SSE 19 26 10 14 1016.0 1015.8 0.0
21/04:00pm 17.6 14.2 11.4 67 3.4 SSE 20 30 11 16 1015.8 1015.6 0.0
21/03:30pm 17.9 14.6 11.7 67 3.4 SSE 20 30 11 16 1015.7 1015.5 0.0
21/03:00pm 18.3 15.0 10.9 62 4.0 S 19 26 10 14 1015.9 1015.7 0.0
21/02:30pm 19.4 16.7 11.7 61 4.3 SSE 17 30 9 16 1015.9 1015.7 0.0
21/02:00pm 18.9 15.8 11.7 63 4.0 SE 19 28 10 15 1016.3 1016.1 0.0
21/01:30pm 18.3 14.7 10.4 60 4.2 SSE 20 28 11 15 1016.6 1016.4 0.0
21/01:00pm 18.2 14.9 11.0 63 3.9 SSE 19 28 10 15 1016.9 1016.7 0.0
21/12:30pm 19.2 16.1 11.7 62 4.1 SE 19 26 10 14 1017.0 1016.8 0.0
21/12:00pm 17.9 14.4 10.8 63 3.8 S 20 28 11 15 1017.3 1017.1 0.0
21/11:30am 17.9 14.7 11.9 68 3.3 SE 20 26 11 14 1017.8 1017.6 0.0
21/11:00am 17.5 14.8 11.8 69 3.1 S 17 30 9 16 1017.9 1017.7 0.0
21/10:30am 16.7 13.2 10.8 68 3.2 S 20 28 11 15 1018.0 1017.8 0.0
21/10:00am 16.4 13.2 11.8 74 2.5 S 20 30 11 16 1018.1 1017.9 0.0
21/09:30am 16.0 13.0 11.8 76 2.3 SSE 19 30 10 16 1017.8 1017.6 0.0
21/09:00am 15.1 12.0 11.5 79 1.9 S 19 30 10 16 1017.7 1017.5 5.6
21/08:30am 14.9 12.6 11.7 81 1.7 S 15 26 8 14 1017.4 1017.2 5.6
21/08:00am 15.0 12.0 12.1 83 1.6 S 19 32 10 17 1016.8 1016.6 5.6
21/07:30am 14.7 10.9 12.4 86 1.3 SSE 24 39 13 21 1016.1 1015.9 5.6
21/07:00am 14.7 11.3 12.6 87 1.2 S 22 39 12 21 1015.7 1015.5 5.6
21/06:30am 14.8 11.6 13.0 89 1.0 S 22 35 12 19 1015.2 1015.0 5.6
21/06:00am 14.8 10.9 13.2 90 0.9 SSE 26 37 14 20 1014.8 1014.6 5.6
21/05:30am 15.2 11.7 13.4 89 1.0 SSE 24 35 13 19 1014.2 1014.1 5.6
21/05:00am 15.4 12.5 14.1 92 0.7 SE 22 30 12 16 1013.4 1013.3 5.6
21/04:30am 15.9 13.3 14.8 93 0.6 SE 22 30 12 16 1013.2 1013.1 5.6
21/04:00am 16.5 14.7 15.4 93 0.6 SE 19 24 10 13 1013.1 1013.0 5.6
21/03:57am 16.5 15.0 15.4 93 0.6 SE 17 22 9 12 1013.1 1013.0 5.6
21/03:30am 17.4 16.7 16.3 93 0.7 SE 15 20 8 11 1013.0 1012.9 5.6
21/03:00am 17.8 17.7 17.0 95 0.5 SE 13 17 7 9 1013.0 1012.9 5.6
21/02:30am 18.0 19.5 17.5 97 0.3 S 6 11 3 6 1013.1 1013.0 5.6
21/02:00am 18.0 19.4 17.7 98 0.2 SW 7 11 4 6 1013.4 1013.3 5.6
21/01:30am 17.9 19.1 17.4 97 0.3 WSW 7 9 4 5 1013.4 1013.3 5.6
21/01:17am 18.0 19.3 17.5 97 0.3 SSW 7 9 4 5 1013.4 1013.3 5.6
21/01:00am 17.9 19.3 17.3 96 0.4 SSW 6 7 3 4 1013.7 1013.6 5.6
21/12:30am 18.2 19.1 17.6 96 0.4 ESE 9 13 5 7 1013.7 1013.6 5.4
21/12:00am 18.3 19.5 17.3 94 0.6 SE 7 9 4 5 1014.5 1014.3 5.4
 
Date/Time
EDT
Temp
°C
App
Temp
°C
Dew
Point
°C
Rel
Hum
%
Delta-T
°C
Wind Press
QNH
hPa
Press
MSL
hPa
Rain since
9am
mm
Dir  Spd
km/h
Gust
km/h
Spd
kts
Gust
kts
20/11:30pm 18.3 19.5 17.3 94 0.6 S 7 11 4 6 1014.6 1014.4 5.4
20/11:00pm 18.6 19.3 17.1 91 0.9 SE 9 11 5 6 1014.6 1014.4 5.4
20/10:30pm 18.8 19.2 17.3 91 0.9 ESE 11 15 6 8 1013.9 1013.8 5.2
20/10:00pm 18.9 19.5 17.6 92 0.8 E 11 17 6 9 1014.5 1014.3 5.2
20/09:30pm 18.8 19.9 18.0 95 0.5 ESE 9 11 5 6 1014.2 1014.1 5.2

Latest Capital City Observations: Canberra | Sydney | Melbourne | Brisbane | Adelaide | Perth | Hobart | Darwin

Other Formats:

Comma delimited format used in spreadsheet applications
http://www.bom.gov.au/fwo/IDN60901/IDN60901.95761.axf

JavaScript Object Notation format (JSON) in row-major order
http://www.bom.gov.au/fwo/IDN60901/IDN60901.95761.json